Time;durP1;ratioP1;P1;durP2;ratioP2;P2;SDS_P1;SDS_P2;PMS_P1;PMS_P2;Temp;Humidity;BMP_temperature;BMP_pressure;BME280_temperature;BME280_humidity;BME280_pressure;Samples;Min_cycle;Max_cycle;Signal;HPM_P1;HPM_P2
2022/12/13 00:01:32;;;;;;;18.48;12.57;;;19.50;36.40;;;;;;5054209;28;20048;-63
2022/12/13 00:04:02;;;;;;;18.92;12.75;;;19.50;36.40;;;;;;5071943;28;20101;-64
2022/12/13 00:06:30;;;;;;;21.92;14.10;;;19.40;36.30;;;;;;5071977;28;20052;-63
2022/12/13 00:08:58;;;;;;;20.38;13.05;;;19.40;36.30;;;;;;5071184;28;20041;-64
2022/12/13 00:11:26;;;;;;;17.90;12.55;;;19.40;36.30;;;;;;5071587;28;20060;-64
2022/12/13 00:13:54;;;;;;;19.58;13.35;;;19.40;36.30;;;;;;5070985;28;20050;-64
2022/12/13 00:16:23;;;;;;;17.83;11.95;;;19.40;36.30;;;;;;5071185;28;20044;-63
2022/12/13 00:18:54;;;;;;;17.70;12.10;;;19.40;36.30;;;;;;5071162;28;20052;-65
2022/12/13 00:21:24;;;;;;;17.70;11.70;;;19.40;36.30;;;;;;5066337;28;20056;-63
2022/12/13 00:23:51;;;;;;;18.38;12.88;;;19.40;36.30;;;;;;5070954;28;20044;-64
2022/12/13 00:26:21;;;;;;;19.58;12.43;;;19.40;36.30;;;;;;5070874;28;20056;-64
2022/12/13 00:28:50;;;;;;;17.73;12.32;;;19.40;36.30;;;;;;5071011;28;20045;-64
2022/12/13 00:31:18;;;;;;;18.65;12.02;;;19.40;36.30;;;;;;5070936;28;20121;-64
2022/12/13 00:34:05;;;;;;;20.17;12.02;;;19.40;36.30;;;;;;5070872;28;20047;-64
2022/12/13 00:36:36;;;;;;;16.30;11.68;;;19.40;36.30;;;;;;5071179;28;20048;-64
2022/12/13 00:39:03;;;;;;;21.83;12.30;;;19.40;36.30;;;;;;5053294;28;20094;-64
2022/12/13 00:41:35;;;;;;;17.13;12.00;;;19.40;36.30;;;;;;5070881;28;20051;-64
2022/12/13 00:44:03;;;;;;;18.00;11.95;;;19.40;36.30;;;;;;5071204;28;20062;-64
2022/12/13 00:46:30;;;;;;;19.02;12.00;;;19.30;36.20;;;;;;5052962;28;20044;-64
2022/12/13 00:48:59;;;;;;;17.35;11.85;;;19.30;36.20;;;;;;5070953;28;20074;-64
2022/12/13 00:51:28;;;;;;;15.93;11.43;;;19.30;36.20;;;;;;5071295;28;20044;-63
2022/12/13 00:53:56;;;;;;;16.98;10.93;;;19.30;36.20;;;;;;5066288;28;20063;-64
2022/12/13 00:56:26;;;;;;;16.42;10.82;;;19.30;36.20;;;;;;5070910;28;20050;-63
2022/12/13 00:58:54;;;;;;;16.45;11.88;;;19.30;36.20;;;;;;5070388;28;20060;-63
2022/12/13 01:01:23;;;;;;;14.52;10.02;;;19.30;36.20;;;;;;5070260;28;20044;-64
2022/12/13 01:03:53;;;;;;;16.42;10.98;;;19.30;36.30;;;;;;5053221;28;20051;-63
2022/12/13 01:06:25;;;;;;;16.10;10.40;;;19.30;36.20;;;;;;5070566;28;20059;-64
2022/12/13 01:08:52;;;;;;;15.38;10.10;;;19.30;36.20;;;;;;5070471;28;20056;-63
2022/12/13 01:11:19;;;;;;;16.30;10.93;;;19.30;36.20;;;;;;5052477;28;20413;-64
2022/12/13 01:13:47;;;;;;;15.32;10.68;;;19.30;36.20;;;;;;5070192;28;20095;-63
2022/12/13 01:16:14;;;;;;;16.63;10.88;;;19.30;36.20;;;;;;5070284;28;20055;-64
2022/12/13 01:18:41;;;;;;;16.23;11.48;;;19.30;36.20;;;;;;5069717;28;20417;-63
2022/12/13 01:21:15;;;;;;;15.70;10.52;;;19.30;36.20;;;;;;5070054;28;20495;-64
2022/12/13 01:23:43;;;;;;;15.05;10.32;;;19.30;36.20;;;;;;5052117;28;20045;-63
2022/12/13 01:26:13;;;;;;;15.57;10.57;;;19.30;36.10;;;;;;5065592;28;20048;-64
2022/12/13 01:28:40;;;;;;;15.52;10.45;;;19.20;36.10;;;;;;5069987;28;20135;-63
2022/12/13 01:31:11;;;;;;;16.42;11.45;;;19.20;36.60;;;;;;5069635;28;20048;-64
2022/12/13 01:33:39;;;;;;;13.95;9.73;;;19.20;36.10;;;;;;5052407;28;20127;-64
2022/12/13 01:36:10;;;;;;;16.40;10.40;;;19.30;36.10;;;;;;5069639;28;20378;-64
2022/12/13 01:38:37;;;;;;;13.70;9.25;;;19.30;36.10;;;;;;5069505;28;20045;-63
2022/12/13 01:41:05;;;;;;;13.73;9.15;;;19.20;36.10;;;;;;5070007;28;20045;-64
2022/12/13 01:43:53;;;;;;;14.15;9.75;;;19.30;36.10;;;;;;5069701;28;20455;-64
2022/12/13 01:46:20;;;;;;;12.70;9.50;;;19.20;36.00;;;;;;5069244;28;20056;-64
2022/12/13 01:49:11;;;;;;;14.48;9.45;;;19.20;36.10;;;;;;5069248;28;20481;-63
2022/12/13 01:51:53;;;;;;;12.60;9.05;;;19.20;36.10;;;;;;5056890;28;20070;-63
2022/12/13 01:54:29;;;;;;;14.30;9.40;;;19.20;36.10;;;;;;5069314;28;20066;-64
2022/12/13 01:57:02;;;;;;;13.82;9.57;;;19.20;36.10;;;;;;5069361;28;20106;-63
2022/12/13 01:59:29;;;;;;;12.77;9.35;;;19.20;36.10;;;;;;5064701;28;20493;-63
2022/12/13 02:01:57;;;;;;;13.73;9.85;;;19.20;36.10;;;;;;5069166;28;20503;-63
2022/12/13 02:04:39;;;;;;;13.15;8.65;;;19.20;36.00;;;;;;5069386;28;20048;-63
2022/12/13 02:07:15;;;;;;;13.77;9.65;;;19.20;36.00;;;;;;5068999;28;20048;-64
2022/12/13 02:09:51;;;;;;;14.10;9.35;;;19.20;36.00;;;;;;5069391;28;20044;-63
2022/12/13 02:12:26;;;;;;;14.45;9.20;;;19.20;36.00;;;;;;5069208;28;20040;-63
2022/12/13 02:14:59;;;;;;;13.10;9.00;;;19.20;36.00;;;;;;5069166;28;20105;-63
2022/12/13 02:17:44;;;;;;;12.82;8.88;;;19.20;35.90;;;;;;5069163;28;20100;-63
2022/12/13 02:20:46;;;;;;;12.18;9.02;;;19.20;35.90;;;;;;5069134;28;20170;-64
2022/12/13 02:23:40;;;;;;;13.43;9.48;;;19.20;35.90;;;;;;5036948;28;20048;-63
2022/12/13 02:26:42;;;;;;;12.27;8.43;;;19.20;35.90;;;;;;5069048;28;20067;-63
2022/12/13 02:29:44;;;;;;;13.57;9.25;;;19.20;35.90;;;;;;5056498;28;20048;-63
2022/12/13 02:32:48;;;;;;;12.20;8.65;;;19.20;35.90;;;;;;5064479;28;20461;-64
2022/12/13 02:35:29;;;;;;;13.40;8.70;;;19.20;35.90;;;;;;5068747;28;20528;-64
2022/12/13 02:38:10;;;;;;;10.88;8.20;;;19.20;35.90;;;;;;5068899;28;20059;-63
2022/12/13 02:41:05;;;;;;;11.57;8.05;;;19.20;35.90;;;;;;5068957;28;20552;-63
2022/12/13 02:43:41;;;;;;;11.10;8.52;;;19.20;35.90;;;;;;5068512;28;20489;-64
2022/12/13 02:46:16;;;;;;;11.55;8.00;;;19.20;35.80;;;;;;5068869;28;20083;-63
2022/12/13 02:48:45;;;;;;;10.27;8.05;;;19.20;35.90;;;;;;5068500;28;20048;-63
2022/12/13 02:51:14;;;;;;;12.40;8.13;;;19.10;35.80;;;;;;5068657;28;20044;-63
2022/12/13 02:53:43;;;;;;;11.50;8.23;;;19.20;35.80;;;;;;5068768;28;20569;-63
2022/12/13 02:56:11;;;;;;;12.30;8.48;;;19.10;35.80;;;;;;5068622;28;20048;-63
2022/12/13 02:58:46;;;;;;;10.60;7.88;;;19.20;35.80;;;;;;5070263;28;20052;-62
2022/12/13 03:01:42;;;;;;;10.07;7.47;;;19.20;35.80;;;;;;5072574;28;20056;-63
2022/12/13 03:06:28;;;;;;;10.27;7.30;;;19.20;35.80;;;;;;5068281;28;20063;-63
2022/12/13 03:07:33;;;;;;;11.75;8.20;;;19.20;35.80;;;;;;5072457;28;20055;-64
2022/12/13 03:10:19;;;;;;;11.55;7.97;;;19.10;35.70;;;;;;5072393;28;20048;-63
2022/12/13 03:15:57;;;;;;;13.45;8.85;;;19.10;35.70;;;;;;5072240;28;20505;-63
2022/12/13 03:18:27;;;;;;;11.38;8.07;;;19.10;35.70;;;;;;5072531;28;20052;-64
2022/12/13 03:21:00;;;;;;;11.32;7.85;;;19.10;35.70;;;;;;5072174;28;20047;-63
2022/12/13 03:23:27;;;;;;;12.50;8.15;;;19.10;35.80;;;;;;5072467;28;20402;-63
2022/12/13 03:26:00;;;;;;;11.75;7.93;;;19.10;35.70;;;;;;5072130;28;20048;-64
2022/12/13 03:28:29;;;;;;;10.50;7.88;;;19.10;35.70;;;;;;5072231;28;20055;-63
2022/12/13 03:30:56;;;;;;;10.10;7.00;;;19.10;35.70;;;;;;5072269;28;20405;-63
2022/12/13 03:33:23;;;;;;;10.68;7.93;;;19.10;35.70;;;;;;5071949;28;20052;-64
2022/12/13 03:35:51;;;;;;;10.27;7.60;;;19.10;35.70;;;;;;5067473;28;20049;-63
2022/12/13 03:38:18;;;;;;;8.60;7.03;;;19.00;35.70;;;;;;5071074;28;20051;-63
2022/12/13 03:40:56;;;;;;;12.70;8.25;;;19.00;35.70;;;;;;5054633;28;20048;-63
2022/12/13 03:43:23;;;;;;;10.60;7.43;;;19.10;35.70;;;;;;5071624;28;20077;-64
2022/12/13 03:45:52;;;;;;;9.40;7.10;;;19.10;35.70;;;;;;5071816;28;20045;-63
2022/12/13 03:48:20;;;;;;;10.32;7.68;;;19.00;35.60;;;;;;5072026;28;20055;-63
2022/12/13 03:50:49;;;;;;;10.73;7.18;;;19.10;35.70;;;;;;5072176;28;20116;-64
2022/12/13 03:53:16;;;;;;;10.40;7.22;;;19.10;35.70;;;;;;5054153;28;20056;-63
2022/12/13 03:55:59;;;;;;;9.23;6.88;;;19.10;35.70;;;;;;5056092;28;20098;-64
2022/12/13 03:58:28;;;;;;;9.07;6.93;;;19.00;35.60;;;;;;5053330;28;20076;-64
2022/12/13 04:01:09;;;;;;;10.55;7.53;;;19.00;35.60;;;;;;5070279;28;20052;-63
2022/12/13 04:03:41;;;;;;;10.35;7.07;;;19.00;35.60;;;;;;5070712;28;20053;-64
2022/12/13 04:06:09;;;;;;;9.30;7.03;;;19.10;35.60;;;;;;5070281;28;20052;-63
2022/12/13 04:08:38;;;;;;;9.68;6.80;;;19.00;35.60;;;;;;5065856;28;20044;-64
2022/12/13 04:13:55;;;;;;;9.65;6.78;;;19.00;35.70;;;;;;5069972;28;20492;-63
2022/12/13 04:16:23;;;;;;;9.05;6.57;;;19.00;35.60;;;;;;5070489;28;20123;-63
2022/12/13 04:18:50;;;;;;;9.48;6.78;;;19.00;35.60;;;;;;5070185;28;20136;-63
2022/12/13 04:21:18;;;;;;;8.45;6.10;;;19.10;35.70;;;;;;5070204;28;20049;-63
2022/12/13 04:23:45;;;;;;;9.25;6.38;;;19.10;35.60;;;;;;5070087;28;20107;-63
2022/12/13 04:26:12;;;;;;;10.40;7.07;;;19.10;35.60;;;;;;5070294;28;20040;-64
2022/12/13 04:28:39;;;;;;;9.35;6.97;;;19.10;35.60;;;;;;5069936;28;20052;-63
2022/12/13 04:31:06;;;;;;;8.85;6.47;;;19.10;35.60;;;;;;5069746;28;20477;-64
2022/12/13 04:33:34;;;;;;;8.85;6.78;;;19.10;35.50;;;;;;5069841;28;20118;-64
2022/12/13 04:36:01;;;;;;;10.52;7.45;;;19.10;35.50;;;;;;5070132;28;20048;-63
2022/12/13 04:38:28;;;;;;;9.38;5.85;;;19.00;35.40;;;;;;5069034;28;20048;-63
2022/12/13 04:41:14;;;;;;;8.25;5.82;;;19.00;35.40;;;;;;5066427;28;20049;-63
2022/12/13 04:43:43;;;;;;;8.82;6.40;;;19.00;35.40;;;;;;5068701;28;20048;-63
2022/12/13 04:46:10;;;;;;;10.50;6.88;;;19.00;35.40;;;;;;5069564;28;20055;-63
2022/12/13 04:48:37;;;;;;;8.30;5.88;;;19.00;35.40;;;;;;5035909;28;20099;-64
2022/12/13 04:51:04;;;;;;;9.00;6.55;;;19.00;35.40;;;;;;5069680;28;20044;-63
2022/12/13 04:53:31;;;;;;;8.90;6.13;;;19.00;35.40;;;;;;5069557;28;20044;-63
2022/12/13 04:56:02;;;;;;;9.25;6.18;;;19.00;35.40;;;;;;5069992;28;20057;-63
2022/12/13 04:58:30;;;;;;;8.50;6.05;;;19.00;35.40;;;;;;5008574;28;1254753;-63
2022/12/13 05:00:57;;;;;;;8.57;5.82;;;19.00;35.40;;;;;;5070311;28;20055;-64
2022/12/13 05:03:27;;;;;;;7.57;5.57;;;19.00;35.40;;;;;;5069859;28;20055;-63
2022/12/13 05:05:54;;;;;;;7.70;6.13;;;19.00;35.40;;;;;;5070715;28;20059;-63
2022/12/13 05:08:21;;;;;;;8.60;5.82;;;19.00;35.30;;;;;;5070007;28;20048;-63
2022/12/13 05:10:48;;;;;;;8.20;5.47;;;19.00;35.40;;;;;;5050690;28;20082;-64
2022/12/13 05:13:15;;;;;;;8.82;5.72;;;19.00;35.40;;;;;;5033419;28;20048;-63
2022/12/13 05:15:42;;;;;;;7.75;5.70;;;18.90;35.30;;;;;;5069636;28;20048;-64
2022/12/13 05:18:10;;;;;;;7.20;5.88;;;18.90;35.30;;;;;;5070095;28;20381;-63
2022/12/13 05:20:38;;;;;;;7.47;5.50;;;18.90;35.30;;;;;;5069016;28;20044;-63
2022/12/13 05:23:07;;;;;;;;;;;19.00;35.30;;;;;;5070527;28;20071;-63
2022/12/13 05:25:35;;;;;;;7.78;5.80;;;18.90;35.30;;;;;;5070320;28;19920;-63
2022/12/13 05:28:04;;;;;;;7.25;5.57;;;18.90;35.30;;;;;;5052550;28;20082;-63
2022/12/13 05:30:51;;;;;;;6.60;5.22;;;19.00;35.40;;;;;;5070068;28;20459;-64
2022/12/13 05:33:18;;;;;;;8.52;5.75;;;19.00;35.30;;;;;;5069917;28;20044;-63
2022/12/13 05:35:46;;;;;;;8.18;5.60;;;19.00;35.30;;;;;;5070046;28;20399;-64
2022/12/13 05:38:14;;;;;;;8.27;6.07;;;18.90;35.10;;;;;;5069559;28;20044;-63
2022/12/13 05:40:41;;;;;;;8.77;6.43;;;18.90;34.90;;;;;;5069395;28;20485;-63
2022/12/13 05:43:10;;;;;;;8.60;5.90;;;18.80;34.90;;;;;;5065647;28;20044;-64
2022/12/13 05:45:48;;;;;;;7.85;5.97;;;18.80;34.90;;;;;;5069352;28;20520;-64
2022/12/13 05:48:15;;;;;;;9.63;6.72;;;18.80;34.90;;;;;;5069258;28;20044;-63
2022/12/13 05:50:51;;;;;;;9.48;6.97;;;18.80;34.90;;;;;;5060250;28;20489;-63
2022/12/13 05:53:38;;;;;;;11.50;7.70;;;18.80;34.90;;;;;;5069432;28;20404;-63
2022/12/13 05:56:06;;;;;;;12.13;7.30;;;18.70;34.80;;;;;;5069235;28;20102;-64
2022/12/13 05:58:35;;;;;;;12.02;7.50;;;18.80;34.80;;;;;;5069060;28;20054;-63
2022/12/13 06:01:11;;;;;;;10.25;7.15;;;18.80;34.80;;;;;;5069317;28;20049;-64
2022/12/13 06:03:39;;;;;;;9.48;6.80;;;18.80;34.80;;;;;;5068856;28;20048;-64
2022/12/13 06:06:09;;;;;;;12.85;8.10;;;18.80;34.80;;;;;;5068798;28;20404;-64
2022/12/13 06:08:37;;;;;;;12.68;8.02;;;18.80;34.70;;;;;;5053643;28;20048;-63
2022/12/13 06:11:05;;;;;;;10.40;7.30;;;18.80;34.70;;;;;;5065580;28;20052;-62
2022/12/13 06:13:42;;;;;;;12.45;7.93;;;18.80;34.70;;;;;;5068953;28;20079;-63
2022/12/13 06:16:12;;;;;;;11.55;8.30;;;18.80;34.60;;;;;;5061567;28;20106;-60
2022/12/13 06:18:52;;;;;;;12.40;8.18;;;18.90;34.70;;;;;;5068020;28;20045;-62
2022/12/13 06:21:31;;;;;;;12.23;8.38;;;18.90;34.80;;;;;;5064958;28;20063;-62
2022/12/13 06:24:13;;;;;;;13.45;8.23;;;18.90;34.80;;;;;;5058811;28;20044;-62
2022/12/13 06:26:40;;;;;;;12.38;9.50;;;18.90;34.90;;;;;;5065094;28;20123;-64
2022/12/13 06:29:07;;;;;;;15.05;9.48;;;19.00;34.90;;;;;;5065876;28;20044;-65
2022/12/13 06:31:35;;;;;;;12.80;8.95;;;19.00;34.90;;;;;;5063118;28;20050;-63
2022/12/13 06:34:05;;;;;;;14.75;9.32;;;19.10;34.90;;;;;;5048363;28;20040;-65
2022/12/13 06:36:41;;;;;;;14.63;9.27;;;19.20;35.00;;;;;;5062221;28;20049;-64
2022/12/13 06:39:08;;;;;;;15.07;10.43;;;19.20;34.90;;;;;;5045225;28;20086;-66
2022/12/13 06:41:36;;;;;;;17.13;9.90;;;19.20;34.80;;;;;;5056695;28;20126;-64
2022/12/13 06:44:03;;;;;;;16.23;9.77;;;19.30;34.70;;;;;;5042041;28;20412;-65
2022/12/13 06:46:31;;;;;;;15.63;9.57;;;19.30;34.60;;;;;;5061455;28;20053;-65
2022/12/13 06:48:58;;;;;;;15.55;9.93;;;19.40;34.60;;;;;;5059987;28;20580;-65
2022/12/13 06:51:26;;;;;;;17.77;10.88;;;19.40;34.50;;;;;;5061089;28;20052;-64
2022/12/13 06:54:01;;;;;;;16.27;10.73;;;19.40;34.70;;;;;;5039168;28;20147;-63
2022/12/13 06:56:29;;;;;;;18.00;10.40;;;19.40;34.90;;;;;;5061280;28;20043;-63
2022/12/13 06:58:57;;;;;;;21.88;12.20;;;19.50;34.90;;;;;;5058993;28;20056;-63
2022/12/13 07:01:29;;;;;;;19.38;10.60;;;19.60;34.90;;;;;;5045400;28;20491;-64
2022/12/13 07:04:05;;;;;;;19.67;11.98;;;19.60;34.90;;;;;;5059776;28;20155;-63
2022/12/13 07:06:52;;;;;;;21.65;12.25;;;19.60;34.90;;;;;;5060531;28;20744;-62
2022/12/13 07:09:19;;;;;;;20.95;12.82;;;19.60;34.80;;;;;;5053353;28;20055;-66
2022/12/13 07:11:47;;;;;;;29.23;12.93;;;19.70;34.90;;;;;;5061630;28;20416;-65
2022/12/13 07:14:19;;;;;;;18.25;11.55;;;19.70;34.90;;;;;;5062352;28;20118;-66
2022/12/13 07:16:46;;;;;;;23.00;13.75;;;19.80;34.80;;;;;;5060082;28;20471;-66
2022/12/13 07:19:13;;;;;;;20.45;13.20;;;19.80;34.60;;;;;;5059302;28;20127;-63
2022/12/13 07:21:51;;;;;;;20.15;13.70;;;19.80;34.60;;;;;;5048190;28;20094;-63
2022/12/13 07:24:18;;;;;;;22.20;13.70;;;19.90;34.70;;;;;;5059329;28;20052;-63
2022/12/13 07:26:46;;;;;;;24.73;14.88;;;19.90;34.70;;;;;;5061668;28;20060;-62
2022/12/13 07:29:13;;;;;;;21.27;13.60;;;19.90;34.70;;;;;;5062573;28;20049;-63
2022/12/13 07:31:48;;;;;;;20.75;14.27;;;20.00;34.70;;;;;;5063732;28;20051;-63
2022/12/13 07:34:16;;;;;;;21.85;14.88;;;20.00;34.80;;;;;;5062309;28;20063;-63
2022/12/13 07:36:43;;;;;;;25.33;14.38;;;20.00;34.90;;;;;;5064954;28;20044;-65
2022/12/13 07:39:10;;;;;;;31.63;16.77;;;20.10;34.90;;;;;;5058921;28;20049;-65
2022/12/13 07:41:37;;;;;;;29.40;16.58;;;20.10;35.00;;;;;;5058881;28;20040;-63
2022/12/13 07:44:05;;;;;;;28.90;15.88;;;20.20;35.10;;;;;;5060192;28;20045;-63
2022/12/13 07:46:32;;;;;;;24.73;14.93;;;20.20;35.00;;;;;;5067977;28;20140;-63
2022/12/13 07:49:04;;;;;;;28.05;16.80;;;20.20;34.90;;;;;;5065457;28;20048;-63
2022/12/13 07:51:34;;;;;;;25.45;17.00;;;20.30;34.90;;;;;;5065118;28;20048;-66
2022/12/13 07:54:02;;;;;;;28.58;16.23;;;20.30;34.80;;;;;;5064420;28;20064;-68
2022/12/13 07:56:34;;;;;;;25.92;15.90;;;20.40;34.80;;;;;;5056223;28;20055;-68
2022/12/13 07:59:01;;;;;;;28.73;17.50;;;20.50;34.90;;;;;;5062238;28;20457;-67
2022/12/13 08:01:33;;;;;;;26.70;16.83;;;20.50;34.90;;;;;;5058610;28;20036;-67
2022/12/13 08:04:01;;;;;;;28.13;17.08;;;20.60;34.90;;;;;;5058151;28;20049;-63
2022/12/13 08:06:28;;;;;;;25.85;16.92;;;20.60;35.00;;;;;;5064043;28;20068;-63
2022/12/13 08:08:56;;;;;;;26.45;16.17;;;20.70;35.00;;;;;;5041986;28;20591;-67
2022/12/13 08:11:23;;;;;;;27.75;18.23;;;20.70;34.90;;;;;;5029910;28;20127;-67
2022/12/13 08:13:52;;;;;;;28.50;18.20;;;20.80;34.90;;;;;;5063630;28;20072;-68
2022/12/13 08:16:20;;;;;;;25.65;17.08;;;20.80;34.60;;;;;;5063933;28;20057;-67
2022/12/13 08:18:56;;;;;;;26.60;16.77;;;20.80;34.40;;;;;;5062397;28;20382;-66
2022/12/13 08:21:34;;;;;;;32.85;18.67;;;20.80;34.30;;;;;;5057684;28;20527;-67
2022/12/13 08:24:23;;;;;;;28.92;18.45;;;20.90;34.20;;;;;;5058210;28;20048;-67
2022/12/13 08:26:51;;;;;;;30.67;19.23;;;20.90;34.10;;;;;;5062869;28;20412;-67
2022/12/13 08:29:18;;;;;;;30.83;19.40;;;20.90;34.10;;;;;;5060854;28;20404;-69
2022/12/13 08:32:00;;;;;;;27.73;17.92;;;21.00;34.20;;;;;;5065080;28;20048;-67
2022/12/13 08:34:28;;;;;;;26.60;17.60;;;21.00;34.20;;;;;;5063765;28;20041;-68
2022/12/13 08:36:55;;;;;;;26.52;18.08;;;21.00;34.10;;;;;;5065090;28;20052;-68
2022/12/13 08:39:36;;;;;;;32.35;18.63;;;21.00;34.10;;;;;;5061574;28;20854;-67
2022/12/13 08:42:14;;;;;;;24.80;16.92;;;21.00;34.10;;;;;;5063095;28;20055;-68
2022/12/13 08:44:50;;;;;;;31.50;17.52;;;21.00;34.30;;;;;;5048945;28;20115;-67
2022/12/13 08:47:20;;;;;;;29.35;18.38;;;21.10;34.60;;;;;;5060878;28;20052;-67
2022/12/13 08:49:55;;;;;;;30.95;18.27;;;21.10;34.60;;;;;;5049256;28;20493;-67
2022/12/13 08:52:31;;;;;;;25.48;16.67;;;21.10;34.60;;;;;;5060948;28;20044;-67
2022/12/13 08:55:09;;;;;;;27.13;17.50;;;21.20;34.70;;;;;;5061617;28;20407;-67
2022/12/13 08:57:38;;;;;;;28.23;17.83;;;21.20;34.70;;;;;;5063296;28;20515;-65
2022/12/13 09:00:06;;;;;;;28.50;18.13;;;21.30;34.70;;;;;;5058293;28;20052;-67
2022/12/13 09:02:33;;;;;;;28.20;19.30;;;21.30;34.60;;;;;;5055990;28;20082;-66
2022/12/13 09:05:06;;;;;;;27.50;18.35;;;21.30;34.50;;;;;;5057347;28;20147;-64
2022/12/13 09:07:41;;;;;;;28.95;19.00;;;21.40;34.70;;;;;;5057794;28;20048;-65
2022/12/13 09:10:10;;;;;;;32.75;20.45;;;21.40;34.70;;;;;;5059506;28;20059;-64
2022/12/13 09:12:55;;;;;;;25.75;18.30;;;21.50;34.70;;;;;;5064235;28;20581;-70
2022/12/13 09:15:29;;;;;;;27.50;17.73;;;21.50;34.70;;;;;;5061792;28;20049;-69
2022/12/13 09:18:02;;;;;;;31.00;19.67;;;21.60;34.70;;;;;;5063274;28;20381;-70
2022/12/13 09:20:31;;;;;;;31.02;18.83;;;21.60;34.60;;;;;;5054420;28;20543;-68
2022/12/13 09:23:08;;;;;;;27.90;19.02;;;21.70;34.60;;;;;;5058684;28;20040;-67
2022/12/13 09:25:54;;;;;;;29.88;17.27;;;21.70;34.90;;;;;;5058530;28;20077;-67
2022/12/13 09:28:22;;;;;;;26.80;18.10;;;21.70;34.20;;;;;;5059281;28;20067;-69
2022/12/13 09:30:50;;;;;;;27.08;17.80;;;21.70;33.90;;;;;;5046249;28;20049;-72
2022/12/13 09:33:17;;;;;;;29.05;18.48;;;21.70;33.80;;;;;;5055730;28;20117;-66
2022/12/13 09:35:57;;;;;;;28.02;18.13;;;21.70;33.70;;;;;;5061156;28;20496;-70
2022/12/13 09:38:28;;;;;;;24.67;16.45;;;21.80;33.60;;;;;;5061194;28;20098;-66
2022/12/13 09:40:59;;;;;;;23.42;16.05;;;21.80;33.70;;;;;;5060567;28;20192;-67
2022/12/13 09:43:31;;;;;;;26.05;16.63;;;21.80;33.80;;;;;;5060523;28;20052;-66
2022/12/13 09:46:31;;;;;;;24.35;15.93;;;21.80;33.80;;;;;;5057995;28;20155;-66
2022/12/13 09:49:17;;;;;;;23.25;16.10;;;21.80;33.70;;;;;;5058200;28;20079;-66
2022/12/13 09:51:53;;;;;;;27.05;15.45;;;21.90;33.70;;;;;;5059662;28;20048;-67
2022/12/13 09:54:39;;;;;;;21.63;14.48;;;21.90;33.60;;;;;;5034158;28;20232;-67
2022/12/13 09:57:19;;;;;;;24.80;15.43;;;21.90;33.60;;;;;;5058951;28;20052;-65
2022/12/13 10:00:07;;;;;;;25.10;15.50;;;22.00;33.60;;;;;;5056077;28;20094;-65
2022/12/13 10:02:43;;;;;;;22.98;14.70;;;22.00;33.50;;;;;;5053287;28;20516;-68
2022/12/13 10:05:31;;;;;;;20.33;14.20;;;22.00;33.50;;;;;;5059721;28;20048;-64
2022/12/13 10:08:15;;;;;;;23.25;14.13;;;22.10;33.60;;;;;;5059166;28;20127;-66
2022/12/13 10:10:43;;;;;;;19.60;13.48;;;22.10;33.60;;;;;;5062151;28;20143;-66
2022/12/13 10:13:45;;;;;;;21.60;13.80;;;22.10;33.50;;;;;;5060964;28;20109;-65
2022/12/13 10:16:22;;;;;;;20.38;13.93;;;22.10;33.50;;;;;;5076598;28;20079;-69
2022/12/13 10:18:50;;;;;;;19.42;12.98;;;22.20;33.40;;;;;;5061759;28;20444;-69
2022/12/13 10:21:32;;;;;;;19.42;13.40;;;22.20;33.50;;;;;;5059859;28;20501;-67
2022/12/13 10:24:18;;;;;;;16.95;12.40;;;22.20;33.60;;;;;;5041891;28;20137;-65
2022/12/13 10:27:14;;;;;;;17.15;12.35;;;22.20;33.60;;;;;;5048007;28;20051;-65
2022/12/13 10:30:04;;;;;;;22.92;12.75;;;22.30;33.60;;;;;;5044956;28;20499;-64
2022/12/13 10:32:56;;;;;;;19.30;12.20;;;22.30;33.40;;;;;;5058198;28;20129;-67
2022/12/13 10:35:35;;;;;;;18.77;11.52;;;22.40;33.40;;;;;;5060574;28;20052;-68
2022/12/13 10:38:27;;;;;;;15.95;11.63;;;22.30;33.30;;;;;;5059681;28;20171;-68
2022/12/13 10:40:58;;;;;;;23.77;12.63;;;22.40;33.20;;;;;;5039706;28;20045;-68
2022/12/13 10:43:29;;;;;;;16.73;10.75;;;22.40;33.10;;;;;;5057585;28;20090;-68
2022/12/13 10:45:59;;;;;;;16.60;10.20;;;22.40;33.00;;;;;;5054596;28;20052;-65
2022/12/13 10:48:48;;;;;;;15.90;11.27;;;22.50;33.00;;;;;;5060269;28;20045;-68
2022/12/13 10:51:20;;;;;;;21.60;10.43;;;22.50;32.90;;;;;;5061600;28;20484;-67
2022/12/13 10:53:57;;;;;;;13.90;9.95;;;22.50;33.40;;;;;;5054672;28;20059;-67
2022/12/13 10:56:35;;;;;;;19.33;10.73;;;22.50;33.00;;;;;;5057193;28;20126;-65
2022/12/13 10:59:29;;;;;;;17.95;10.60;;;22.60;32.80;;;;;;5050664;28;20352;-65
2022/12/13 11:01:57;;;;;;;12.85;9.20;;;22.60;32.80;;;;;;5046634;28;20508;-73
2022/12/13 11:04:33;;;;;;;13.52;9.20;;;22.50;32.80;;;;;;5055797;28;20053;-67
2022/12/13 11:07:24;;;;;;;14.40;8.73;;;22.50;32.60;;;;;;5060015;28;20531;-68
2022/12/13 11:09:51;;;;;;;10.15;7.75;;;22.50;32.40;;;;;;5059410;28;20610;-70
2022/12/13 11:12:25;;;;;;;12.98;8.25;;;22.50;32.30;;;;;;5057372;28;20064;-69
2022/12/13 11:15:03;;;;;;;13.98;9.80;;;22.50;32.20;;;;;;5064271;28;20073;-70
2022/12/13 11:17:35;;;;;;;12.73;8.15;;;22.50;32.00;;;;;;5064521;28;20127;-68
2022/12/13 11:20:06;;;;;;;15.27;8.75;;;22.50;32.00;;;;;;5065722;28;20409;-68
2022/12/13 11:22:36;;;;;;;10.68;7.70;;;22.50;32.00;;;;;;5068607;28;20044;-70
2022/12/13 11:25:18;;;;;;;11.85;8.23;;;22.40;31.90;;;;;;5049317;28;20309;-71
2022/12/13 11:28:19;;;;;;;11.85;7.85;;;22.50;31.90;;;;;;5064954;28;20048;-70
2022/12/13 11:31:30;;;;;;;12.80;8.45;;;22.40;31.80;;;;;;5065928;28;20042;-70
2022/12/13 11:34:21;;;;;;;11.00;7.97;;;22.40;31.80;;;;;;5056181;28;20057;-72
2022/12/13 11:37:11;;;;;;;9.75;7.25;;;22.30;31.70;;;;;;5067866;28;20060;-71
2022/12/13 11:40:03;;;;;;;9.60;6.65;;;22.40;31.60;;;;;;5060975;28;20045;-71
2022/12/13 11:42:44;;;;;;;9.38;7.00;;;22.30;31.60;;;;;;5064825;28;20056;-74
2022/12/13 11:45:25;;;;;;;10.80;7.28;;;22.40;31.70;;;;;;5055833;28;20044;-73
2022/12/13 11:48:16;;;;;;;9.60;7.20;;;22.40;31.60;;;;;;5063637;28;20048;-72
2022/12/13 11:50:47;;;;;;;10.65;7.03;;;22.30;31.70;;;;;;5050591;28;20048;-73
2022/12/13 11:53:30;;;;;;;10.10;6.93;;;22.30;31.60;;;;;;5066988;28;20048;-73
2022/12/13 11:56:20;;;;;;;7.22;5.80;;;22.30;31.60;;;;;;5069585;28;20075;-71
2022/12/13 11:59:02;;;;;;;7.57;6.28;;;22.30;31.60;;;;;;5050360;28;20043;-69
2022/12/13 12:01:46;;;;;;;10.52;6.70;;;22.30;31.60;;;;;;5058647;28;20141;-69
2022/12/13 12:04:43;;;;;;;8.15;6.30;;;22.40;31.60;;;;;;5041628;28;20198;-68
2022/12/13 12:07:15;;;;;;;10.40;6.38;;;22.30;31.60;;;;;;5043362;28;20552;-69
2022/12/13 12:10:23;;;;;;;9.18;5.82;;;22.30;31.40;;;;;;5057258;28;20143;-68
2022/12/13 12:13:03;;;;;;;7.60;5.68;;;22.40;31.40;;;;;;5061633;28;20113;-68
2022/12/13 12:15:36;;;;;;;7.00;5.35;;;22.30;31.40;;;;;;5060539;28;20058;-68
2022/12/13 12:18:14;;;;;;;7.90;5.50;;;22.40;31.40;;;;;;5056876;28;20125;-70
2022/12/13 12:21:02;;;;;;;8.45;5.13;;;22.40;31.40;;;;;;5046250;28;20044;-69
2022/12/13 12:24:07;;;;;;;7.88;5.32;;;22.40;31.40;;;;;;5059446;28;20049;-68
2022/12/13 12:26:51;;;;;;;8.30;5.40;;;22.40;31.60;;;;;;5060820;28;20507;-70
2022/12/13 12:29:39;;;;;;;10.93;5.55;;;22.40;32.20;;;;;;5058225;28;20473;-71
2022/12/13 12:32:38;;;;;;;6.05;5.00;;;22.40;31.70;;;;;;5063500;28;20049;-70
2022/12/13 12:35:47;;;;;;;7.30;4.75;;;22.40;31.70;;;;;;5064294;28;20482;-72
2022/12/13 12:38:40;;;;;;;7.47;5.40;;;22.40;31.60;;;;;;5057056;28;20495;-68
2022/12/13 12:41:23;;;;;;;9.70;5.25;;;22.40;31.70;;;;;;5060066;28;20465;-69
2022/12/13 12:44:04;;;;;;;7.70;5.43;;;22.40;31.60;;;;;;5056830;28;20041;-73
2022/12/13 12:47:01;;;;;;;7.32;4.78;;;22.40;31.70;;;;;;5061637;28;20054;-71
2022/12/13 12:50:28;;;;;;;6.95;5.00;;;22.40;31.70;;;;;;5050373;28;20071;-69
2022/12/13 12:53:21;;;;;;;7.95;4.80;;;22.50;31.80;;;;;;5052094;28;20055;-69
2022/12/13 12:56:18;;;;;;;6.75;4.95;;;22.50;31.70;;;;;;5049132;28;20068;-72
2022/12/13 12:59:09;;;;;;;6.20;4.63;;;22.50;31.80;;;;;;5057504;28;20502;-72
2022/12/13 13:02:19;;;;;;;6.75;4.85;;;22.50;31.80;;;;;;5061352;28;20056;-68
2022/12/13 13:05:07;;;;;;;7.43;4.13;;;22.40;31.90;;;;;;5057808;28;20087;-68
2022/12/13 13:07:41;;;;;;;6.93;4.57;;;22.40;31.80;;;;;;5060313;28;20049;-68
2022/12/13 13:10:17;;;;;;;11.27;4.50;;;22.40;31.80;;;;;;5060893;28;20102;-71
2022/12/13 13:12:54;;;;;;;6.55;4.30;;;22.40;31.80;;;;;;5045004;28;20048;-69
2022/12/13 13:15:43;;;;;;;5.05;3.90;;;22.40;31.90;;;;;;5061623;28;20102;-64
2022/12/13 13:18:48;;;;;;;4.97;4.40;;;22.40;31.80;;;;;;5058419;28;20052;-66
2022/12/13 13:21:37;;;;;;;7.20;4.13;;;22.30;31.70;;;;;;5061684;28;20512;-68
2022/12/13 13:24:12;;;;;;;6.00;3.97;;;22.30;31.70;;;;;;5080716;28;20485;-64